sensor_id;sensor_type;location;lat;lon;timestamp;temperature;humidity
48998;DHT22;34807;51.456;7.244;2022-09-02T00:01:53;19.70;60.30
48998;DHT22;34807;51.456;7.244;2022-09-02T00:04:21;19.70;60.20
48998;DHT22;34807;51.456;7.244;2022-09-02T00:06:47;19.70;60.20
48998;DHT22;34807;51.456;7.244;2022-09-02T00:09:14;19.70;60.30
48998;DHT22;34807;51.456;7.244;2022-09-02T00:11:40;19.60;60.20
48998;DHT22;34807;51.456;7.244;2022-09-02T00:14:09;19.60;60.30
48998;DHT22;34807;51.456;7.244;2022-09-02T00:16:35;19.60;60.50
48998;DHT22;34807;51.456;7.244;2022-09-02T00:19:01;19.60;60.40
48998;DHT22;34807;51.456;7.244;2022-09-02T00:21:27;19.60;60.40
48998;DHT22;34807;51.456;7.244;2022-09-02T00:23:52;19.50;60.30
48998;DHT22;34807;51.456;7.244;2022-09-02T00:26:18;19.50;60.30
48998;DHT22;34807;51.456;7.244;2022-09-02T00:28:44;19.50;60.40
48998;DHT22;34807;51.456;7.244;2022-09-02T00:31:11;19.50;60.40
48998;DHT22;34807;51.456;7.244;2022-09-02T00:33:37;19.50;60.50
48998;DHT22;34807;51.456;7.244;2022-09-02T00:36:03;19.40;60.40
48998;DHT22;34807;51.456;7.244;2022-09-02T00:38:29;19.40;60.40
48998;DHT22;34807;51.456;7.244;2022-09-02T00:40:57;19.40;60.40
48998;DHT22;34807;51.456;7.244;2022-09-02T00:43:37;19.40;60.40
48998;DHT22;34807;51.456;7.244;2022-09-02T00:46:03;19.40;60.50
48998;DHT22;34807;51.456;7.244;2022-09-02T00:48:28;19.30;60.50
48998;DHT22;34807;51.456;7.244;2022-09-02T00:50:54;19.30;60.50
48998;DHT22;34807;51.456;7.244;2022-09-02T00:53:20;19.30;60.50
48998;DHT22;34807;51.456;7.244;2022-09-02T00:55:46;19.30;60.70
48998;DHT22;34807;51.456;7.244;2022-09-02T00:58:14;19.20;60.60
48998;DHT22;34807;51.456;7.244;2022-09-02T01:00:41;19.30;60.70
48998;DHT22;34807;51.456;7.244;2022-09-02T01:03:09;19.20;60.70
48998;DHT22;34807;51.456;7.244;2022-09-02T01:05:38;19.20;60.70
48998;DHT22;34807;51.456;7.244;2022-09-02T01:08:04;19.20;60.70
48998;DHT22;34807;51.456;7.244;2022-09-02T01:10:32;19.20;60.80
48998;DHT22;34807;51.456;7.244;2022-09-02T01:13:03;19.20;60.80
48998;DHT22;34807;51.456;7.244;2022-09-02T01:15:33;19.10;60.80
48998;DHT22;34807;51.456;7.244;2022-09-02T01:18:00;19.10;60.80
48998;DHT22;34807;51.456;7.244;2022-09-02T01:20:26;19.10;60.80
48998;DHT22;34807;51.456;7.244;2022-09-02T01:22:52;19.10;60.90
48998;DHT22;34807;51.456;7.244;2022-09-02T01:25:20;19.10;60.80
48998;DHT22;34807;51.456;7.244;2022-09-02T01:27:46;19.00;60.90
48998;DHT22;34807;51.456;7.244;2022-09-02T01:30:14;19.00;60.90
48998;DHT22;34807;51.456;7.244;2022-09-02T01:32:40;19.00;60.90
48998;DHT22;34807;51.456;7.244;2022-09-02T01:35:06;19.00;61.00
48998;DHT22;34807;51.456;7.244;2022-09-02T01:37:32;19.00;61.70
48998;DHT22;34807;51.456;7.244;2022-09-02T01:39:58;19.00;61.10
48998;DHT22;34807;51.456;7.244;2022-09-02T01:42:24;18.90;61.10
48998;DHT22;34807;51.456;7.244;2022-09-02T01:44:50;18.90;61.10
48998;DHT22;34807;51.456;7.244;2022-09-02T01:47:17;18.90;61.10
48998;DHT22;34807;51.456;7.244;2022-09-02T01:49:43;18.90;61.90
48998;DHT22;34807;51.456;7.244;2022-09-02T01:52:09;18.90;61.20
48998;DHT22;34807;51.456;7.244;2022-09-02T01:54:34;18.80;61.20
48998;DHT22;34807;51.456;7.244;2022-09-02T01:57:00;18.80;61.30
48998;DHT22;34807;51.456;7.244;2022-09-02T01:59:25;18.80;61.30
48998;DHT22;34807;51.456;7.244;2022-09-02T02:01:51;18.80;61.30
48998;DHT22;34807;51.456;7.244;2022-09-02T02:04:16;18.80;61.40
48998;DHT22;34807;51.456;7.244;2022-09-02T02:06:42;18.70;61.40
48998;DHT22;34807;51.456;7.244;2022-09-02T02:09:09;18.70;61.60
48998;DHT22;34807;51.456;7.244;2022-09-02T02:11:35;18.70;61.40
48998;DHT22;34807;51.456;7.244;2022-09-02T02:14:00;18.70;61.50
48998;DHT22;34807;51.456;7.244;2022-09-02T02:16:26;18.70;61.50
48998;DHT22;34807;51.456;7.244;2022-09-02T02:18:51;18.70;61.50
48998;DHT22;34807;51.456;7.244;2022-09-02T02:21:17;18.70;61.60
48998;DHT22;34807;51.456;7.244;2022-09-02T02:23:42;18.60;61.50
48998;DHT22;34807;51.456;7.244;2022-09-02T02:26:08;18.60;61.60
48998;DHT22;34807;51.456;7.244;2022-09-02T02:28:34;18.60;61.60
48998;DHT22;34807;51.456;7.244;2022-09-02T02:30:59;18.60;61.70
48998;DHT22;34807;51.456;7.244;2022-09-02T02:33:25;18.60;61.70
48998;DHT22;34807;51.456;7.244;2022-09-02T02:35:53;18.50;61.70
48998;DHT22;34807;51.456;7.244;2022-09-02T02:38:19;18.50;61.60
48998;DHT22;34807;51.456;7.244;2022-09-02T02:40:44;18.50;61.70
48998;DHT22;34807;51.456;7.244;2022-09-02T02:43:10;18.50;61.60
48998;DHT22;34807;51.456;7.244;2022-09-02T02:45:35;18.50;61.70
48998;DHT22;34807;51.456;7.244;2022-09-02T02:48:01;18.50;61.70
48998;DHT22;34807;51.456;7.244;2022-09-02T02:50:26;18.50;61.70
48998;DHT22;34807;51.456;7.244;2022-09-02T02:52:52;18.40;61.70
48998;DHT22;34807;51.456;7.244;2022-09-02T02:55:19;18.40;61.70
48998;DHT22;34807;51.456;7.244;2022-09-02T02:57:45;18.40;61.80
48998;DHT22;34807;51.456;7.244;2022-09-02T03:02:36;18.40;61.90
48998;DHT22;34807;51.456;7.244;2022-09-02T03:05:03;18.30;61.80
48998;DHT22;34807;51.456;7.244;2022-09-02T03:07:29;18.30;61.80
48998;DHT22;34807;51.456;7.244;2022-09-02T03:09:54;18.30;61.90
48998;DHT22;34807;51.456;7.244;2022-09-02T03:12:20;18.30;61.90
48998;DHT22;34807;51.456;7.244;2022-09-02T03:14:45;18.30;61.90
48998;DHT22;34807;51.456;7.244;2022-09-02T03:17:11;18.30;61.90
48998;DHT22;34807;51.456;7.244;2022-09-02T03:19:36;18.20;61.90
48998;DHT22;34807;51.456;7.244;2022-09-02T03:22:02;18.30;62.00
48998;DHT22;34807;51.456;7.244;2022-09-02T03:24:28;18.20;61.90
48998;DHT22;34807;51.456;7.244;2022-09-02T03:26:54;18.20;61.90
48998;DHT22;34807;51.456;7.244;2022-09-02T03:29:19;18.20;62.00
48998;DHT22;34807;51.456;7.244;2022-09-02T03:31:45;18.20;62.00
48998;DHT22;34807;51.456;7.244;2022-09-02T03:34:10;18.20;62.00
48998;DHT22;34807;51.456;7.244;2022-09-02T03:36:37;18.20;62.00
48998;DHT22;34807;51.456;7.244;2022-09-02T03:39:03;18.20;62.00
48998;DHT22;34807;51.456;7.244;2022-09-02T03:41:29;18.20;62.00
48998;DHT22;34807;51.456;7.244;2022-09-02T03:43:54;18.10;62.00
48998;DHT22;34807;51.456;7.244;2022-09-02T03:46:20;18.10;62.00
48998;DHT22;34807;51.456;7.244;2022-09-02T03:48:47;18.10;61.90
48998;DHT22;34807;51.456;7.244;2022-09-02T03:51:16;18.10;61.90
48998;DHT22;34807;51.456;7.244;2022-09-02T03:53:42;18.10;61.90
48998;DHT22;34807;51.456;7.244;2022-09-02T03:56:08;18.10;61.90
48998;DHT22;34807;51.456;7.244;2022-09-02T03:58:36;18.00;61.90
48998;DHT22;34807;51.456;7.244;2022-09-02T04:01:02;18.00;61.90
48998;DHT22;34807;51.456;7.244;2022-09-02T04:03:28;18.10;62.00
48998;DHT22;34807;51.456;7.244;2022-09-02T04:05:53;18.00;61.90
48998;DHT22;34807;51.456;7.244;2022-09-02T04:08:19;18.00;61.80
48998;DHT22;34807;51.456;7.244;2022-09-02T04:10:44;18.00;61.90
48998;DHT22;34807;51.456;7.244;2022-09-02T04:13:10;18.00;61.90
48998;DHT22;34807;51.456;7.244;2022-09-02T04:15:39;18.00;61.90
48998;DHT22;34807;51.456;7.244;2022-09-02T04:21:10;18.00;61.90
48998;DHT22;34807;51.456;7.244;2022-09-02T04:23:36;18.00;61.80
48998;DHT22;34807;51.456;7.244;2022-09-02T04:26:05;18.00;61.80
48998;DHT22;34807;51.456;7.244;2022-09-02T04:28:31;17.90;61.80
48998;DHT22;34807;51.456;7.244;2022-09-02T04:30:56;17.90;61.80
48998;DHT22;34807;51.456;7.244;2022-09-02T04:33:22;17.90;61.80
48998;DHT22;34807;51.456;7.244;2022-09-02T04:35:47;17.90;61.80
48998;DHT22;34807;51.456;7.244;2022-09-02T04:38:16;17.90;61.80
48998;DHT22;34807;51.456;7.244;2022-09-02T04:40:44;17.90;61.80
48998;DHT22;34807;51.456;7.244;2022-09-02T04:43:11;17.90;61.80
48998;DHT22;34807;51.456;7.244;2022-09-02T04:45:40;17.90;61.80
48998;DHT22;34807;51.456;7.244;2022-09-02T04:48:06;17.90;61.90
48998;DHT22;34807;51.456;7.244;2022-09-02T04:50:31;17.90;61.90
48998;DHT22;34807;51.456;7.244;2022-09-02T04:52:57;17.90;61.90
48998;DHT22;34807;51.456;7.244;2022-09-02T04:55:24;17.80;61.90
48998;DHT22;34807;51.456;7.244;2022-09-02T04:57:50;17.80;61.90
48998;DHT22;34807;51.456;7.244;2022-09-02T05:00:15;17.80;61.90
48998;DHT22;34807;51.456;7.244;2022-09-02T05:02:43;17.80;61.90
48998;DHT22;34807;51.456;7.244;2022-09-02T05:05:08;17.80;62.00
48998;DHT22;34807;51.456;7.244;2022-09-02T05:07:34;17.80;62.00
48998;DHT22;34807;51.456;7.244;2022-09-02T05:10:00;17.80;62.00
48998;DHT22;34807;51.456;7.244;2022-09-02T05:12:27;17.80;61.90
48998;DHT22;34807;51.456;7.244;2022-09-02T05:14:53;17.80;62.00
48998;DHT22;34807;51.456;7.244;2022-09-02T05:17:19;17.80;62.10
48998;DHT22;34807;51.456;7.244;2022-09-02T05:19:45;17.80;62.00
48998;DHT22;34807;51.456;7.244;2022-09-02T05:22:10;17.80;62.10
48998;DHT22;34807;51.456;7.244;2022-09-02T05:24:36;17.80;62.20
48998;DHT22;34807;51.456;7.244;2022-09-02T05:27:01;17.80;62.10
48998;DHT22;34807;51.456;7.244;2022-09-02T05:29:27;17.80;62.20
48998;DHT22;34807;51.456;7.244;2022-09-02T05:31:52;17.80;62.20
48998;DHT22;34807;51.456;7.244;2022-09-02T05:34:18;17.80;62.10
48998;DHT22;34807;51.456;7.244;2022-09-02T05:36:44;17.80;62.10
48998;DHT22;34807;51.456;7.244;2022-09-02T05:39:09;17.80;62.10
48998;DHT22;34807;51.456;7.244;2022-09-02T05:41:35;17.80;62.20
48998;DHT22;34807;51.456;7.244;2022-09-02T05:44:01;17.80;62.20
48998;DHT22;34807;51.456;7.244;2022-09-02T05:46:27;17.80;62.30
48998;DHT22;34807;51.456;7.244;2022-09-02T05:48:53;17.80;62.30
48998;DHT22;34807;51.456;7.244;2022-09-02T05:51:41;17.80;63.00
48998;DHT22;34807;51.456;7.244;2022-09-02T05:54:17;17.80;62.40
48998;DHT22;34807;51.456;7.244;2022-09-02T05:56:44;17.80;62.50
48998;DHT22;34807;51.456;7.244;2022-09-02T05:59:10;17.80;62.50
48998;DHT22;34807;51.456;7.244;2022-09-02T06:01:36;17.80;62.50
48998;DHT22;34807;51.456;7.244;2022-09-02T06:04:02;17.80;62.50
48998;DHT22;34807;51.456;7.244;2022-09-02T06:06:28;17.80;62.50
48998;DHT22;34807;51.456;7.244;2022-09-02T06:08:54;17.80;62.50
48998;DHT22;34807;51.456;7.244;2022-09-02T06:11:20;17.80;62.60
48998;DHT22;34807;51.456;7.244;2022-09-02T06:13:46;17.90;62.60
48998;DHT22;34807;51.456;7.244;2022-09-02T06:16:14;17.90;62.60
48998;DHT22;34807;51.456;7.244;2022-09-02T06:18:40;17.80;62.70
48998;DHT22;34807;51.456;7.244;2022-09-02T06:21:05;17.80;62.70
48998;DHT22;34807;51.456;7.244;2022-09-02T06:23:32;17.90;62.70
48998;DHT22;34807;51.456;7.244;2022-09-02T06:25:58;17.80;62.80
48998;DHT22;34807;51.456;7.244;2022-09-02T06:28:24;17.90;62.70
48998;DHT22;34807;51.456;7.244;2022-09-02T06:30:49;17.90;62.80
48998;DHT22;34807;51.456;7.244;2022-09-02T06:33:15;17.90;62.70
48998;DHT22;34807;51.456;7.244;2022-09-02T06:35:42;17.90;62.90
48998;DHT22;34807;51.456;7.244;2022-09-02T06:38:08;17.90;62.80
48998;DHT22;34807;51.456;7.244;2022-09-02T06:40:35;17.90;62.70
48998;DHT22;34807;51.456;7.244;2022-09-02T06:43:00;17.90;62.80
48998;DHT22;34807;51.456;7.244;2022-09-02T06:45:26;17.90;62.90
48998;DHT22;34807;51.456;7.244;2022-09-02T06:47:52;17.90;62.90
48998;DHT22;34807;51.456;7.244;2022-09-02T06:50:18;17.90;62.90
48998;DHT22;34807;51.456;7.244;2022-09-02T06:52:43;18.00;62.90
48998;DHT22;34807;51.456;7.244;2022-09-02T06:55:09;18.00;62.90
48998;DHT22;34807;51.456;7.244;2022-09-02T06:57:35;18.00;62.90
48998;DHT22;34807;51.456;7.244;2022-09-02T07:00:03;18.00;62.80
48998;DHT22;34807;51.456;7.244;2022-09-02T07:02:30;18.00;62.80
48998;DHT22;34807;51.456;7.244;2022-09-02T07:04:55;18.10;62.80
48998;DHT22;34807;51.456;7.244;2022-09-02T07:07:40;18.10;62.80
48998;DHT22;34807;51.456;7.244;2022-09-02T07:10:07;18.10;62.80
48998;DHT22;34807;51.456;7.244;2022-09-02T07:12:34;18.10;62.80
48998;DHT22;34807;51.456;7.244;2022-09-02T07:14:59;18.20;62.80
48998;DHT22;34807;51.456;7.244;2022-09-02T07:17:25;18.20;62.70
48998;DHT22;34807;51.456;7.244;2022-09-02T07:19:50;18.30;62.70
48998;DHT22;34807;51.456;7.244;2022-09-02T07:22:16;18.30;62.70
48998;DHT22;34807;51.456;7.244;2022-09-02T07:24:42;18.30;62.70
48998;DHT22;34807;51.456;7.244;2022-09-02T07:27:07;18.40;62.60
48998;DHT22;34807;51.456;7.244;2022-09-02T07:29:33;18.40;62.60
48998;DHT22;34807;51.456;7.244;2022-09-02T07:31:59;18.50;62.50
48998;DHT22;34807;51.456;7.244;2022-09-02T07:34:26;18.60;62.60
48998;DHT22;34807;51.456;7.244;2022-09-02T07:36:52;18.60;62.50
48998;DHT22;34807;51.456;7.244;2022-09-02T07:39:18;18.60;62.50
48998;DHT22;34807;51.456;7.244;2022-09-02T07:41:45;18.60;62.40
48998;DHT22;34807;51.456;7.244;2022-09-02T07:44:11;18.60;62.50
48998;DHT22;34807;51.456;7.244;2022-09-02T07:46:37;18.70;62.50
48998;DHT22;34807;51.456;7.244;2022-09-02T07:49:03;18.70;62.50
48998;DHT22;34807;51.456;7.244;2022-09-02T07:51:30;18.70;62.50
48998;DHT22;34807;51.456;7.244;2022-09-02T07:53:57;18.80;62.60
48998;DHT22;34807;51.456;7.244;2022-09-02T07:56:23;18.90;62.60
48998;DHT22;34807;51.456;7.244;2022-09-02T07:58:48;18.80;62.50
48998;DHT22;34807;51.456;7.244;2022-09-02T08:01:14;18.90;62.50
48998;DHT22;34807;51.456;7.244;2022-09-02T08:03:40;18.90;62.50
48998;DHT22;34807;51.456;7.244;2022-09-02T08:06:07;19.00;62.40
48998;DHT22;34807;51.456;7.244;2022-09-02T08:08:32;19.00;62.50
48998;DHT22;34807;51.456;7.244;2022-09-02T08:10:59;19.10;62.30
48998;DHT22;34807;51.456;7.244;2022-09-02T08:13:25;19.10;62.20
48998;DHT22;34807;51.456;7.244;2022-09-02T08:15:50;19.20;62.20
48998;DHT22;34807;51.456;7.244;2022-09-02T08:18:16;19.30;62.10
48998;DHT22;34807;51.456;7.244;2022-09-02T08:20:42;19.30;62.10
48998;DHT22;34807;51.456;7.244;2022-09-02T08:23:07;19.40;62.10
48998;DHT22;34807;51.456;7.244;2022-09-02T08:25:33;19.40;62.10
48998;DHT22;34807;51.456;7.244;2022-09-02T08:27:59;19.40;62.10
48998;DHT22;34807;51.456;7.244;2022-09-02T08:30:25;19.50;62.20
48998;DHT22;34807;51.456;7.244;2022-09-02T08:32:51;19.50;62.10
48998;DHT22;34807;51.456;7.244;2022-09-02T08:35:16;19.60;62.20
48998;DHT22;34807;51.456;7.244;2022-09-02T08:37:42;19.60;62.20
48998;DHT22;34807;51.456;7.244;2022-09-02T08:40:12;19.60;62.80
48998;DHT22;34807;51.456;7.244;2022-09-02T08:42:42;19.70;62.10
48998;DHT22;34807;51.456;7.244;2022-09-02T08:45:27;19.70;62.00
48998;DHT22;34807;51.456;7.244;2022-09-02T08:47:58;19.80;62.00
48998;DHT22;34807;51.456;7.244;2022-09-02T08:50:26;19.80;61.90
48998;DHT22;34807;51.456;7.244;2022-09-02T08:53:00;19.90;62.60
48998;DHT22;34807;51.456;7.244;2022-09-02T08:55:50;19.90;61.80
48998;DHT22;34807;51.456;7.244;2022-09-02T08:58:16;20.00;61.80
48998;DHT22;34807;51.456;7.244;2022-09-02T09:00:43;20.00;61.80
48998;DHT22;34807;51.456;7.244;2022-09-02T09:03:36;20.10;61.80
48998;DHT22;34807;51.456;7.244;2022-09-02T09:14:05;20.30;61.70
48998;DHT22;34807;51.456;7.244;2022-09-02T09:19:13;20.50;61.50
48998;DHT22;34807;51.456;7.244;2022-09-02T09:21:40;20.50;61.40
48998;DHT22;34807;51.456;7.244;2022-09-02T09:26:43;20.60;61.30
48998;DHT22;34807;51.456;7.244;2022-09-02T09:29:11;20.70;61.20
48998;DHT22;34807;51.456;7.244;2022-09-02T09:31:37;20.70;61.20
48998;DHT22;34807;51.456;7.244;2022-09-02T09:34:04;20.80;61.10
48998;DHT22;34807;51.456;7.244;2022-09-02T09:41:45;20.90;61.00
48998;DHT22;34807;51.456;7.244;2022-09-02T09:44:27;20.90;61.00
48998;DHT22;34807;51.456;7.244;2022-09-02T09:47:00;20.90;60.90
48998;DHT22;34807;51.456;7.244;2022-09-02T09:49:26;21.00;60.80
48998;DHT22;34807;51.456;7.244;2022-09-02T09:51:55;21.00;60.90
48998;DHT22;34807;51.456;7.244;2022-09-02T09:54:20;21.00;61.50
48998;DHT22;34807;51.456;7.244;2022-09-02T09:56:46;21.10;60.90
48998;DHT22;34807;51.456;7.244;2022-09-02T09:59:29;21.10;61.00
48998;DHT22;34807;51.456;7.244;2022-09-02T10:01:56;21.10;61.00
48998;DHT22;34807;51.456;7.244;2022-09-02T10:04:24;21.20;60.90
48998;DHT22;34807;51.456;7.244;2022-09-02T10:06:52;21.30;60.70
48998;DHT22;34807;51.456;7.244;2022-09-02T10:11:55;21.30;60.60
48998;DHT22;34807;51.456;7.244;2022-09-02T10:14:20;21.40;60.50
48998;DHT22;34807;51.456;7.244;2022-09-02T10:16:58;21.40;60.60
48998;DHT22;34807;51.456;7.244;2022-09-02T10:19:38;21.40;60.70
48998;DHT22;34807;51.456;7.244;2022-09-02T10:22:15;21.50;60.70
48998;DHT22;34807;51.456;7.244;2022-09-02T10:25:04;21.60;60.60
48998;DHT22;34807;51.456;7.244;2022-09-02T10:27:36;21.70;60.40
48998;DHT22;34807;51.456;7.244;2022-09-02T10:30:07;21.80;60.10
48998;DHT22;34807;51.456;7.244;2022-09-02T10:38:42;22.00;60.00
48998;DHT22;34807;51.456;7.244;2022-09-02T10:40:47;21.90;60.60
48998;DHT22;34807;51.456;7.244;2022-09-02T10:45:51;21.90;60.10
48998;DHT22;34807;51.456;7.244;2022-09-02T10:50:54;21.90;60.40
48998;DHT22;34807;51.456;7.244;2022-09-02T10:56:12;21.90;60.70
48998;DHT22;34807;51.456;7.244;2022-09-02T11:01:40;22.00;60.60
48998;DHT22;34807;51.456;7.244;2022-09-02T11:06:37;22.20;60.30
48998;DHT22;34807;51.456;7.244;2022-09-02T11:11:49;22.30;60.20
48998;DHT22;34807;51.456;7.244;2022-09-02T11:14:22;22.40;60.00
48998;DHT22;34807;51.456;7.244;2022-09-02T11:16:55;22.50;59.90
48998;DHT22;34807;51.456;7.244;2022-09-02T11:21:57;22.60;60.00
48998;DHT22;34807;51.456;7.244;2022-09-02T11:27:10;22.80;59.40
48998;DHT22;34807;51.456;7.244;2022-09-02T11:29:50;23.00;59.20
48998;DHT22;34807;51.456;7.244;2022-09-02T11:34:54;23.30;58.60
48998;DHT22;34807;51.456;7.244;2022-09-02T11:37:27;23.30;58.00
48998;DHT22;34807;51.456;7.244;2022-09-02T11:39:56;23.30;58.20
48998;DHT22;34807;51.456;7.244;2022-09-02T11:47:44;23.70;57.00
48998;DHT22;34807;51.456;7.244;2022-09-02T11:55:31;24.00;57.10
48998;DHT22;34807;51.456;7.244;2022-09-02T11:57:58;24.10;56.70
48998;DHT22;34807;51.456;7.244;2022-09-02T12:00:27;24.20;56.80
48998;DHT22;34807;51.456;7.244;2022-09-02T12:08:01;24.40;56.30
48998;DHT22;34807;51.456;7.244;2022-09-02T12:21:18;24.80;56.50
48998;DHT22;34807;51.456;7.244;2022-09-02T12:26:17;24.80;56.50
48998;DHT22;34807;51.456;7.244;2022-09-02T12:28:44;24.90;56.60
48998;DHT22;34807;51.456;7.244;2022-09-02T12:36:05;24.80;57.10
48998;DHT22;34807;51.456;7.244;2022-09-02T12:38:32;24.70;57.30
48998;DHT22;34807;51.456;7.244;2022-09-02T12:54:13;25.00;57.40
48998;DHT22;34807;51.456;7.244;2022-09-02T12:56:40;24.90;57.30
48998;DHT22;34807;51.456;7.244;2022-09-02T13:01:51;24.90;57.60
48998;DHT22;34807;51.456;7.244;2022-09-02T13:32:32;25.20;56.40
48998;DHT22;34807;51.456;7.244;2022-09-02T13:35:06;25.30;56.90
48998;DHT22;34807;51.456;7.244;2022-09-02T13:37:36;25.30;57.20
48998;DHT22;34807;51.456;7.244;2022-09-02T13:40:04;25.40;57.10
48998;DHT22;34807;51.456;7.244;2022-09-02T13:42:30;25.40;56.50
48998;DHT22;34807;51.456;7.244;2022-09-02T13:45:09;25.40;56.80
48998;DHT22;34807;51.456;7.244;2022-09-02T13:47:35;25.40;56.90
48998;DHT22;34807;51.456;7.244;2022-09-02T13:50:01;25.40;56.70
48998;DHT22;34807;51.456;7.244;2022-09-02T13:52:26;25.40;56.30
48998;DHT22;34807;51.456;7.244;2022-09-02T13:54:53;25.50;56.50
48998;DHT22;34807;51.456;7.244;2022-09-02T13:57:21;25.50;57.00
48998;DHT22;34807;51.456;7.244;2022-09-02T13:59:52;25.50;56.60
48998;DHT22;34807;51.456;7.244;2022-09-02T14:04:54;25.50;57.00
48998;DHT22;34807;51.456;7.244;2022-09-02T14:07:25;25.50;56.90
48998;DHT22;34807;51.456;7.244;2022-09-02T14:09:52;25.60;57.00
48998;DHT22;34807;51.456;7.244;2022-09-02T14:12:18;25.60;56.50
48998;DHT22;34807;51.456;7.244;2022-09-02T14:14:44;25.60;56.10
48998;DHT22;34807;51.456;7.244;2022-09-02T14:17:16;25.70;56.20
48998;DHT22;34807;51.456;7.244;2022-09-02T14:19:42;25.80;54.70
48998;DHT22;34807;51.456;7.244;2022-09-02T14:22:17;25.90;55.70
48998;DHT22;34807;51.456;7.244;2022-09-02T14:24:43;25.90;56.00
48998;DHT22;34807;51.456;7.244;2022-09-02T14:27:16;26.00;55.90
48998;DHT22;34807;51.456;7.244;2022-09-02T14:29:43;26.10;55.20
48998;DHT22;34807;51.456;7.244;2022-09-02T14:34:47;26.10;55.50
48998;DHT22;34807;51.456;7.244;2022-09-02T14:37:14;26.10;55.60
48998;DHT22;34807;51.456;7.244;2022-09-02T14:39:52;26.00;55.70
48998;DHT22;34807;51.456;7.244;2022-09-02T14:42:17;25.90;55.60
48998;DHT22;34807;51.456;7.244;2022-09-02T14:44:45;25.90;56.40
48998;DHT22;34807;51.456;7.244;2022-09-02T14:47:14;25.90;56.20
48998;DHT22;34807;51.456;7.244;2022-09-02T14:49:48;25.90;56.20
48998;DHT22;34807;51.456;7.244;2022-09-02T14:54:43;25.90;56.00
48998;DHT22;34807;51.456;7.244;2022-09-02T14:59:44;26.30;54.80
48998;DHT22;34807;51.456;7.244;2022-09-02T15:02:19;26.40;54.80
48998;DHT22;34807;51.456;7.244;2022-09-02T15:04:45;26.60;54.50
48998;DHT22;34807;51.456;7.244;2022-09-02T15:07:11;26.90;54.10
48998;DHT22;34807;51.456;7.244;2022-09-02T15:09:36;27.10;53.70
48998;DHT22;34807;51.456;7.244;2022-09-02T15:12:02;27.30;53.50
48998;DHT22;34807;51.456;7.244;2022-09-02T15:14:27;27.40;53.40
48998;DHT22;34807;51.456;7.244;2022-09-02T15:16:53;27.60;53.20
48998;DHT22;34807;51.456;7.244;2022-09-02T15:19:19;27.80;53.00
48998;DHT22;34807;51.456;7.244;2022-09-02T15:21:44;28.00;52.70
48998;DHT22;34807;51.456;7.244;2022-09-02T15:24:10;28.20;52.30
48998;DHT22;34807;51.456;7.244;2022-09-02T15:26:35;28.40;51.90
48998;DHT22;34807;51.456;7.244;2022-09-02T15:29:01;28.50;51.90
48998;DHT22;34807;51.456;7.244;2022-09-02T15:31:27;28.60;51.80
48998;DHT22;34807;51.456;7.244;2022-09-02T15:33:53;28.80;51.60
48998;DHT22;34807;51.456;7.244;2022-09-02T15:36:19;28.90;51.50
48998;DHT22;34807;51.456;7.244;2022-09-02T15:38:45;29.00;51.20
48998;DHT22;34807;51.456;7.244;2022-09-02T15:41:18;29.00;51.40
48998;DHT22;34807;51.456;7.244;2022-09-02T15:43:44;29.10;51.20
48998;DHT22;34807;51.456;7.244;2022-09-02T15:48:45;29.20;51.00
48998;DHT22;34807;51.456;7.244;2022-09-02T15:51:11;29.10;51.10
48998;DHT22;34807;51.456;7.244;2022-09-02T15:53:37;29.30;50.60
48998;DHT22;34807;51.456;7.244;2022-09-02T15:56:02;29.50;50.50
48998;DHT22;34807;51.456;7.244;2022-09-02T15:58:28;29.70;49.90
48998;DHT22;34807;51.456;7.244;2022-09-02T16:00:53;30.00;49.80
48998;DHT22;34807;51.456;7.244;2022-09-02T16:03:19;30.30;49.20
48998;DHT22;34807;51.456;7.244;2022-09-02T16:05:44;30.40;49.00
48998;DHT22;34807;51.456;7.244;2022-09-02T16:08:10;30.50;49.00
48998;DHT22;34807;51.456;7.244;2022-09-02T16:10:36;30.60;48.80
48998;DHT22;34807;51.456;7.244;2022-09-02T16:13:02;30.70;48.40
48998;DHT22;34807;51.456;7.244;2022-09-02T16:15:28;30.80;48.80
48998;DHT22;34807;51.456;7.244;2022-09-02T16:17:54;30.80;48.60
48998;DHT22;34807;51.456;7.244;2022-09-02T16:20:20;30.80;48.40
48998;DHT22;34807;51.456;7.244;2022-09-02T16:22:46;30.80;48.40
48998;DHT22;34807;51.456;7.244;2022-09-02T16:25:13;30.50;48.40
48998;DHT22;34807;51.456;7.244;2022-09-02T16:27:38;30.30;48.70
48998;DHT22;34807;51.456;7.244;2022-09-02T16:30:16;30.10;49.10
48998;DHT22;34807;51.456;7.244;2022-09-02T16:32:42;29.80;49.40
48998;DHT22;34807;51.456;7.244;2022-09-02T16:35:08;29.50;49.90
48998;DHT22;34807;51.456;7.244;2022-09-02T16:37:33;29.20;50.60
48998;DHT22;34807;51.456;7.244;2022-09-02T16:39:59;29.00;50.80
48998;DHT22;34807;51.456;7.244;2022-09-02T16:42:25;28.80;51.10
48998;DHT22;34807;51.456;7.244;2022-09-02T16:44:50;28.60;51.60
48998;DHT22;34807;51.456;7.244;2022-09-02T16:47:16;28.40;52.00
48998;DHT22;34807;51.456;7.244;2022-09-02T16:49:41;28.20;52.40
48998;DHT22;34807;51.456;7.244;2022-09-02T16:52:07;28.00;52.00
48998;DHT22;34807;51.456;7.244;2022-09-02T16:54:33;27.90;52.20
48998;DHT22;34807;51.456;7.244;2022-09-02T16:56:59;27.70;52.70
48998;DHT22;34807;51.456;7.244;2022-09-02T16:59:25;27.60;52.80
48998;DHT22;34807;51.456;7.244;2022-09-02T17:01:50;27.50;53.20
48998;DHT22;34807;51.456;7.244;2022-09-02T17:04:16;27.50;53.10
48998;DHT22;34807;51.456;7.244;2022-09-02T17:06:41;27.40;53.50
48998;DHT22;34807;51.456;7.244;2022-09-02T17:09:07;27.20;53.30
48998;DHT22;34807;51.456;7.244;2022-09-02T17:11:34;27.20;54.10
48998;DHT22;34807;51.456;7.244;2022-09-02T17:16:28;26.90;53.60
48998;DHT22;34807;51.456;7.244;2022-09-02T17:18:54;26.80;53.30
48998;DHT22;34807;51.456;7.244;2022-09-02T17:21:24;26.70;53.20
48998;DHT22;34807;51.456;7.244;2022-09-02T17:23:50;26.60;53.20
48998;DHT22;34807;51.456;7.244;2022-09-02T17:26:16;26.50;53.00
48998;DHT22;34807;51.456;7.244;2022-09-02T17:28:42;26.40;54.10
48998;DHT22;34807;51.456;7.244;2022-09-02T17:31:27;26.30;53.50
48998;DHT22;34807;51.456;7.244;2022-09-02T17:33:54;26.20;53.40
48998;DHT22;34807;51.456;7.244;2022-09-02T17:36:21;26.10;53.50
48998;DHT22;34807;51.456;7.244;2022-09-02T17:38:46;26.00;53.50
48998;DHT22;34807;51.456;7.244;2022-09-02T17:41:12;25.90;53.60
48998;DHT22;34807;51.456;7.244;2022-09-02T17:43:57;25.80;54.10
48998;DHT22;34807;51.456;7.244;2022-09-02T17:46:22;25.70;54.30
48998;DHT22;34807;51.456;7.244;2022-09-02T17:48:48;25.60;54.10
48998;DHT22;34807;51.456;7.244;2022-09-02T17:51:14;25.60;54.20
48998;DHT22;34807;51.456;7.244;2022-09-02T17:53:39;25.40;54.20
48998;DHT22;34807;51.456;7.244;2022-09-02T17:56:14;25.40;54.30
48998;DHT22;34807;51.456;7.244;2022-09-02T17:58:48;25.30;54.60
48998;DHT22;34807;51.456;7.244;2022-09-02T18:01:15;25.20;54.70